createdAt,value
2022-08-03T00:01:02.918Z,100570.13
2022-08-03T00:03:27.321Z,100571.03
2022-08-03T00:06:03.765Z,100566.63
2022-08-03T00:08:28.022Z,100567.66
2022-08-03T00:10:51.092Z,100568.88
2022-08-03T00:13:14.223Z,100570.56
2022-08-03T00:15:37.244Z,100564.13
2022-08-03T00:18:00.289Z,100557.38
2022-08-03T00:20:24.788Z,100560.91
2022-08-03T00:22:47.802Z,100560.38
2022-08-03T00:25:10.975Z,100557.72
2022-08-03T00:27:33.986Z,100554.50
2022-08-03T00:30:00.043Z,100555.84
2022-08-03T00:32:24.153Z,100554.84
2022-08-03T00:34:57.603Z,100543.47
2022-08-03T00:37:22.910Z,100549.53
2022-08-03T00:40:04.369Z,100552.09
2022-08-03T00:42:28.702Z,100544.63
2022-08-03T00:44:51.846Z,100537.34
2022-08-03T00:47:14.791Z,100551.19
2022-08-03T00:49:37.978Z,100548.81
2022-08-03T00:52:01.018Z,100541.53
2022-08-03T00:54:33.827Z,100542.06
2022-08-03T00:57:00.010Z,100544.31
2022-08-03T00:59:23.510Z,100541.50
2022-08-03T01:01:46.659Z,100544.00
2022-08-03T01:04:09.751Z,100545.53
2022-08-03T01:06:34.234Z,100553.63
2022-08-03T01:08:59.464Z,100552.78
2022-08-03T01:11:26.169Z,100546.72
2022-08-03T01:14:01.899Z,100551.09
2022-08-03T01:16:35.873Z,100554.66
2022-08-03T01:19:01.570Z,100558.53
2022-08-03T01:21:26.789Z,100556.81
2022-08-03T01:23:55.713Z,100549.59
2022-08-03T01:26:24.473Z,100552.31
2022-08-03T01:28:58.346Z,100547.91
2022-08-03T01:31:23.507Z,100553.81
2022-08-03T01:33:48.565Z,100547.41
2022-08-03T01:36:12.966Z,100554.81
2022-08-03T01:38:36.335Z,100555.50
2022-08-03T01:40:59.378Z,100555.97
2022-08-03T01:44:26.925Z,100552.06
2022-08-03T01:46:06.741Z,100553.06
2022-08-03T01:48:31.123Z,100553.25
2022-08-03T01:50:54.148Z,100560.50
2022-08-03T01:53:17.474Z,100553.03
2022-08-03T01:55:40.519Z,100552.88
2022-08-03T01:58:04.853Z,100553.72
2022-08-03T02:00:29.448Z,100556.28
2022-08-03T02:02:52.545Z,100549.19
2022-08-03T02:05:17.041Z,100548.13
2022-08-03T02:07:41.205Z,100553.59
2022-08-03T02:10:04.943Z,100551.47
2022-08-03T02:12:28.358Z,100556.03
2022-08-03T02:14:51.810Z,100558.72
2022-08-03T02:17:14.825Z,100557.38
2022-08-03T02:19:38.157Z,100557.53
2022-08-03T02:22:02.514Z,100560.06
2022-08-03T02:24:25.670Z,100555.81
2022-08-03T02:26:48.841Z,100558.72
2022-08-03T02:29:12.928Z,100562.94
2022-08-03T02:31:36.066Z,100553.28
2022-08-03T02:34:00.363Z,100549.75
2022-08-03T02:36:24.737Z,100562.09
2022-08-03T02:38:50.504Z,100562.59
2022-08-03T02:41:15.030Z,100560.22
2022-08-03T02:43:39.192Z,100560.56
2022-08-03T02:46:21.739Z,100557.88
2022-08-03T02:48:45.914Z,100557.72
2022-08-03T02:51:08.984Z,100565.31
2022-08-03T02:53:32.032Z,100561.75
2022-08-03T02:55:56.389Z,100555.84
2022-08-03T02:58:19.804Z,100557.19
2022-08-03T03:00:42.991Z,100550.75
2022-08-03T03:03:06.257Z,100563.47
2022-08-03T03:05:53.732Z,100564.97
2022-08-03T03:08:18.816Z,100573.41
2022-08-03T03:10:43.988Z,100568.00
2022-08-03T03:13:08.462Z,100556.72
2022-08-03T03:15:32.926Z,100564.66
2022-08-03T03:17:55.995Z,100572.03
2022-08-03T03:20:29.357Z,100568.97
2022-08-03T03:22:53.398Z,100577.81
2022-08-03T03:25:16.420Z,100580.13
2022-08-03T03:27:39.645Z,100576.72
2022-08-03T03:30:04.453Z,100574.38
2022-08-03T03:32:27.957Z,100570.03
2022-08-03T03:34:50.991Z,100575.91
2022-08-03T03:37:14.237Z,100575.56
2022-08-03T03:39:37.459Z,100583.19
2022-08-03T03:42:01.168Z,100589.13
2022-08-03T03:44:25.961Z,100586.78
2022-08-03T03:46:50.479Z,100591.53
2022-08-03T03:49:13.601Z,100591.69
2022-08-03T03:51:36.754Z,100591.00
2022-08-03T03:53:59.875Z,100590.13
2022-08-03T03:56:22.919Z,100599.25
2022-08-03T03:58:46.035Z,100593.50
2022-08-03T04:01:09.965Z,100593.97
2022-08-03T04:03:34.510Z,100596.53
2022-08-03T04:06:14.629Z,100600.03
2022-08-03T04:08:54.902Z,100603.97
2022-08-03T04:11:19.271Z,100607.69
2022-08-03T04:13:43.706Z,100606.47
2022-08-03T04:16:06.723Z,100603.78
2022-08-03T04:18:30.692Z,100601.75
2022-08-03T04:20:55.087Z,100606.19
2022-08-03T04:23:18.435Z,100606.72
2022-08-03T04:25:41.448Z,100607.56
2022-08-03T04:28:28.308Z,100608.91
2022-08-03T04:30:49.030Z,100603.16
2022-08-03T04:33:12.013Z,100616.69
2022-08-03T04:36:01.731Z,100607.75
2022-08-03T04:38:20.698Z,100601.13
2022-08-03T04:40:44.117Z,100604.84
2022-08-03T04:43:07.133Z,100599.97
2022-08-03T04:45:30.282Z,100612.66
2022-08-03T04:47:53.285Z,100608.59
2022-08-03T04:50:21.005Z,100611.41
2022-08-03T04:53:00.142Z,100611.59
2022-08-03T04:55:28.712Z,100613.28
2022-08-03T04:57:51.734Z,100612.28
2022-08-03T05:00:15.357Z,100607.16
2022-08-03T05:02:38.418Z,100604.69
2022-08-03T05:05:01.536Z,100609.75
2022-08-03T05:07:24.973Z,100611.28
2022-08-03T05:09:50.652Z,100620.22
2022-08-03T05:12:17.730Z,100618.19
2022-08-03T05:14:40.877Z,100607.69
2022-08-03T05:17:03.977Z,100622.25
2022-08-03T05:19:27.014Z,100615.47
2022-08-03T05:21:52.030Z,100616.69
2022-08-03T05:24:15.782Z,100627.50
2022-08-03T05:26:38.851Z,100625.66
2022-08-03T05:29:03.258Z,100624.97
2022-08-03T05:31:26.254Z,100632.59
2022-08-03T05:33:49.770Z,100636.13
2022-08-03T05:36:12.778Z,100633.41
2022-08-03T05:38:36.407Z,100631.22
2022-08-03T05:41:22.856Z,100637.16
2022-08-03T05:43:42.422Z,100640.34
2022-08-03T05:46:12.073Z,100634.25
2022-08-03T05:48:36.165Z,100629.50
2022-08-03T05:50:59.191Z,100626.47
2022-08-03T05:53:22.230Z,100627.44
2022-08-03T05:55:45.223Z,100644.75
2022-08-03T05:58:08.329Z,100646.06
2022-08-03T06:00:34.418Z,100638.66
2022-08-03T06:02:58.832Z,100642.06
2022-08-03T06:05:21.817Z,100641.22
2022-08-03T06:07:44.868Z,100637.66
2022-08-03T06:10:35.573Z,100643.72
2022-08-03T06:12:52.666Z,100638.34
2022-08-03T06:15:16.678Z,100636.13
2022-08-03T06:17:48.867Z,100641.69
2022-08-03T06:20:13.802Z,100637.63
2022-08-03T06:22:37.072Z,100640.50
2022-08-03T06:25:13.746Z,100644.91
2022-08-03T06:27:40.082Z,100642.38
2022-08-03T06:30:03.151Z,100637.47
2022-08-03T06:32:26.265Z,100643.38
2022-08-03T06:34:49.267Z,100646.44
2022-08-03T06:37:13.659Z,100651.50
2022-08-03T06:39:36.665Z,100641.88
2022-08-03T06:41:59.687Z,100644.72
2022-08-03T06:44:22.769Z,100648.47
2022-08-03T06:46:45.806Z,100640.88
2022-08-03T06:49:08.969Z,100638.34
2022-08-03T06:52:05.110Z,100641.69
2022-08-03T06:54:16.710Z,100631.72
2022-08-03T06:56:39.769Z,100634.41
2022-08-03T06:59:02.874Z,100637.97
2022-08-03T07:01:25.942Z,100638.66
2022-08-03T07:03:52.568Z,100637.44
2022-08-03T07:06:15.713Z,100639.16
2022-08-03T07:08:38.813Z,100645.59
2022-08-03T07:11:03.256Z,100635.59
2022-08-03T07:13:27.443Z,100645.25
2022-08-03T07:15:55.259Z,100637.13
2022-08-03T07:18:29.601Z,100649.63
2022-08-03T07:20:53.292Z,100636.25
2022-08-03T07:23:19.306Z,100643.69
2022-08-03T07:25:42.500Z,100648.09
2022-08-03T07:28:08.344Z,100645.56
2022-08-03T07:30:31.392Z,100653.81
2022-08-03T07:32:54.524Z,100649.59
2022-08-03T07:35:24.402Z,100656.53
2022-08-03T07:37:54.957Z,100658.75
2022-08-03T07:40:18.431Z,100662.31
2022-08-03T07:42:41.454Z,100650.13
2022-08-03T07:45:06.350Z,100652.81
2022-08-03T07:47:34.914Z,100655.50
2022-08-03T07:49:58.954Z,100658.38
2022-08-03T07:52:39.488Z,100659.00
2022-08-03T07:55:02.612Z,100659.00
2022-08-03T07:57:25.621Z,100653.78
2022-08-03T07:59:56.800Z,100651.75
2022-08-03T08:02:36.417Z,100659.19
2022-08-03T08:05:04.967Z,100652.75
2022-08-03T08:07:28.726Z,100657.81
2022-08-03T08:09:51.810Z,100660.38
2022-08-03T08:12:15.345Z,100658.16
2022-08-03T08:14:39.030Z,100648.84
2022-08-03T08:17:05.637Z,100665.75
2022-08-03T08:19:31.702Z,100671.16
2022-08-03T08:22:02.518Z,100662.56
2022-08-03T08:24:26.063Z,100664.72
2022-08-03T08:26:49.312Z,100669.44
2022-08-03T08:29:12.462Z,100675.22
2022-08-03T08:31:35.588Z,100670.13
2022-08-03T08:34:04.037Z,100674.38
2022-08-03T08:36:29.128Z,100669.78
2022-08-03T08:38:52.177Z,100666.94
2022-08-03T08:41:15.555Z,100663.69
2022-08-03T08:43:38.620Z,100659.09
2022-08-03T08:46:01.707Z,100662.13
2022-08-03T08:48:25.876Z,100667.25
2022-08-03T08:50:48.864Z,100668.41
2022-08-03T08:53:18.222Z,100661.47
2022-08-03T08:55:58.789Z,100656.41
2022-08-03T08:58:23.090Z,100660.78
2022-08-03T09:00:46.169Z,100657.72
2022-08-03T09:03:09.393Z,100665.31
2022-08-03T09:05:55.052Z,100666.34
2022-08-03T09:08:17.288Z,100664.19
2022-08-03T09:10:40.435Z,100662.13
2022-08-03T09:13:03.478Z,100660.13
2022-08-03T09:15:26.969Z,100665.19
2022-08-03T09:17:51.207Z,100660.63
2022-08-03T09:20:14.643Z,100649.59
2022-08-03T09:22:37.654Z,100648.41
2022-08-03T09:25:23.508Z,100651.13
2022-08-03T09:27:46.567Z,100655.50
2022-08-03T09:30:32.219Z,100656.53
2022-08-03T09:33:01.690Z,100646.19
2022-08-03T09:35:51.696Z,100650.56
2022-08-03T09:38:12.601Z,100653.13
2022-08-03T09:40:38.669Z,100647.88
2022-08-03T09:43:01.818Z,100645.00
2022-08-03T09:45:27.970Z,100647.31
2022-08-03T09:47:51.078Z,100643.78
2022-08-03T09:50:14.125Z,100640.91
2022-08-03T09:52:49.333Z,100646.97
2022-08-03T09:56:32.737Z,100644.59
2022-08-03T09:58:06.482Z,100645.44
2022-08-03T10:00:29.646Z,100654.88
2022-08-03T10:02:52.934Z,100653.34
2022-08-03T10:05:19.687Z,100652.31
2022-08-03T10:07:46.182Z,100650.75
2022-08-03T10:10:30.821Z,100646.84
2022-08-03T10:12:53.736Z,100649.56
2022-08-03T10:16:21.969Z,100657.69
2022-08-03T10:18:01.151Z,100647.50
2022-08-03T10:20:24.266Z,100643.94
2022-08-03T10:22:47.298Z,100650.19
2022-08-03T10:25:10.861Z,100653.88
2022-08-03T10:27:37.999Z,100651.16
2022-08-03T10:30:03.014Z,100643.22
2022-08-03T10:32:29.389Z,100644.91
2022-08-03T10:35:00.050Z,100636.75
2022-08-03T10:37:23.453Z,100634.41
2022-08-03T10:39:54.419Z,100635.94
2022-08-03T10:42:17.528Z,100642.19
2022-08-03T10:44:41.309Z,100634.41
2022-08-03T10:47:04.338Z,100630.03
2022-08-03T10:49:34.077Z,100642.53
2022-08-03T10:51:58.488Z,100643.78
2022-08-03T10:54:59.489Z,100643.94
2022-08-03T10:57:38.028Z,100638.88
2022-08-03T11:00:03.366Z,100637.34
2022-08-03T11:02:41.522Z,100638.88
2022-08-03T11:05:19.419Z,100625.50
2022-08-03T11:07:45.533Z,100630.94
2022-08-03T11:10:30.578Z,100638.59
2022-08-03T11:12:53.853Z,100634.34
2022-08-03T11:15:16.872Z,100634.72
2022-08-03T11:17:46.903Z,100636.63
2022-08-03T11:20:19.228Z,100626.31
2022-08-03T11:22:54.607Z,100622.41
2022-08-03T11:25:54.230Z,100610.53
2022-08-03T11:28:15.727Z,100622.22
2022-08-03T11:30:38.820Z,100622.22
2022-08-03T11:33:02.035Z,100616.09
2022-08-03T11:35:25.376Z,100617.28
2022-08-03T11:38:08.907Z,100622.34
2022-08-03T11:40:35.611Z,100607.31
2022-08-03T11:42:58.666Z,100608.50
2022-08-03T11:45:21.670Z,100606.88
2022-08-03T11:47:51.119Z,100605.53
2022-08-03T11:50:14.432Z,100609.94
2022-08-03T11:52:38.580Z,100607.41
2022-08-03T11:55:03.114Z,100610.78
2022-08-03T11:59:01.191Z,100623.81
2022-08-03T12:00:23.434Z,100617.72
2022-08-03T12:02:55.550Z,100615.69
2022-08-03T12:05:19.098Z,100605.72
2022-08-03T12:08:03.084Z,100603.69
2022-08-03T12:10:30.526Z,100602.47
2022-08-03T12:12:56.118Z,100612.28
2022-08-03T12:15:19.207Z,100616.88
2022-08-03T12:17:42.286Z,100602.28
2022-08-03T12:20:06.107Z,100593.50
2022-08-03T12:22:32.534Z,100601.13
2022-08-03T12:24:55.682Z,100602.00
2022-08-03T12:27:26.598Z,100607.91
2022-08-03T12:29:58.389Z,100613.66
2022-08-03T12:32:21.934Z,100606.53
2022-08-03T12:34:48.214Z,100608.41
2022-08-03T12:37:22.301Z,100596.09
2022-08-03T12:40:02.090Z,100601.50
2022-08-03T12:42:32.593Z,100597.78
2022-08-03T12:44:56.551Z,100594.72
2022-08-03T12:47:19.820Z,100587.09
2022-08-03T12:49:46.268Z,100590.66
2022-08-03T12:52:10.527Z,100588.44
2022-08-03T12:54:36.008Z,100590.13
2022-08-03T12:56:59.475Z,100603.47
2022-08-03T12:59:32.227Z,100602.28
2022-08-03T13:01:58.255Z,100597.78
2022-08-03T13:04:28.408Z,100586.25
2022-08-03T13:06:57.986Z,100590.19
2022-08-03T13:09:26.538Z,100598.13
2022-08-03T13:12:01.846Z,100591.31
2022-08-03T13:14:27.043Z,100592.00
2022-08-03T13:16:50.107Z,100597.56
2022-08-03T13:19:15.584Z,100580.47
2022-08-03T13:22:01.659Z,100588.44
2022-08-03T13:24:22.274Z,100593.00
2022-08-03T13:26:45.282Z,100598.97
2022-08-03T13:29:08.406Z,100607.41
2022-08-03T13:31:32.839Z,100599.44
2022-08-03T13:33:55.950Z,100591.31
2022-08-03T13:36:18.931Z,100604.03
2022-08-03T13:38:42.046Z,100595.06
2022-08-03T13:41:05.722Z,100599.63
2022-08-03T13:43:29.006Z,100596.94
2022-08-03T13:45:56.523Z,100595.91
2022-08-03T13:48:37.690Z,100602.34
2022-08-03T13:51:05.318Z,100601.66
2022-08-03T13:53:35.062Z,100608.78
2022-08-03T13:55:58.122Z,100613.31
2022-08-03T13:58:21.113Z,100598.75
2022-08-03T14:00:44.240Z,100606.69
2022-08-03T14:03:13.723Z,100603.97
2022-08-03T14:05:39.388Z,100614.66
2022-08-03T14:08:04.387Z,100599.22
2022-08-03T14:10:28.062Z,100605.84
2022-08-03T14:12:51.178Z,100601.25
2022-08-03T14:15:14.614Z,100605.47
2022-08-03T14:17:49.712Z,100603.13
2022-08-03T14:20:38.959Z,100601.44
2022-08-03T14:22:59.169Z,100608.53
2022-08-03T14:25:22.201Z,100612.28
2022-08-03T14:27:45.689Z,100604.84
2022-08-03T14:30:09.215Z,100606.50
2022-08-03T14:32:32.304Z,100607.53
2022-08-03T14:34:55.307Z,100613.97
2022-08-03T14:37:18.681Z,100616.31
2022-08-03T14:39:59.954Z,100616.31
2022-08-03T14:42:23.796Z,100607.84
2022-08-03T14:44:46.785Z,100611.59
2022-08-03T14:47:09.913Z,100611.59
2022-08-03T14:50:38.923Z,100609.91
2022-08-03T14:52:16.116Z,100599.78
2022-08-03T14:54:39.111Z,100601.25
2022-08-03T14:57:03.593Z,100607.22
2022-08-03T14:59:26.674Z,100598.75
2022-08-03T15:02:04.244Z,100603.47
2022-08-03T15:04:29.646Z,100601.13
2022-08-03T15:06:52.659Z,100592.16
2022-08-03T15:09:23.641Z,100600.97
2022-08-03T15:11:47.165Z,100600.13
2022-08-03T15:14:13.575Z,100594.72
2022-08-03T15:16:38.022Z,100595.34
2022-08-03T15:19:01.018Z,100597.41
2022-08-03T15:21:46.627Z,100589.63
2022-08-03T15:24:07.277Z,100595.41
2022-08-03T15:26:36.454Z,100585.91
2022-08-03T15:29:02.750Z,100586.09
2022-08-03T15:31:27.123Z,100581.31
2022-08-03T15:33:50.781Z,100586.56
2022-08-03T15:36:13.837Z,100591.16
2022-08-03T15:38:36.883Z,100583.03
2022-08-03T15:41:00.205Z,100583.88
2022-08-03T15:43:23.309Z,100590.97
2022-08-03T15:45:46.390Z,100592.00
2022-08-03T15:48:10.878Z,100584.72
2022-08-03T15:50:33.922Z,100589.94
2022-08-03T15:52:57.004Z,100583.03
2022-08-03T15:55:20.122Z,100587.56
2022-08-03T15:59:03.204Z,100590.28
2022-08-03T16:00:33.456Z,100590.97
2022-08-03T16:02:57.534Z,100590.81
2022-08-03T16:05:21.898Z,100594.72
2022-08-03T16:08:03.642Z,100583.88
2022-08-03T16:10:30.425Z,100584.94
2022-08-03T16:12:53.438Z,100580.47
2022-08-03T16:15:16.458Z,100580.31
2022-08-03T16:17:39.532Z,100587.56
2022-08-03T16:20:07.478Z,100585.91
2022-08-03T16:22:35.242Z,100583.19
2022-08-03T16:24:58.310Z,100583.03
2022-08-03T16:27:37.657Z,100582.84
2022-08-03T16:30:05.016Z,100596.03
2022-08-03T16:32:28.038Z,100590.81
2022-08-03T16:34:51.056Z,100596.22
2022-08-03T16:37:36.925Z,100598.06
2022-08-03T16:39:58.665Z,100597.91
2022-08-03T16:42:21.711Z,100593.13
2022-08-03T16:44:44.812Z,100597.19
2022-08-03T16:47:07.976Z,100594.28
2022-08-03T16:49:55.251Z,100602.78
2022-08-03T16:52:19.538Z,100600.06
2022-08-03T16:54:52.625Z,100599.06
2022-08-03T16:57:29.756Z,100601.03
2022-08-03T17:00:00.987Z,100568.31
2022-08-03T17:02:26.198Z,100598.03
2022-08-03T17:04:50.199Z,100602.13
2022-08-03T17:07:13.358Z,100599.22
2022-08-03T17:09:38.286Z,100602.97
2022-08-03T17:12:01.655Z,100600.41
2022-08-03T17:14:28.399Z,100596.03
2022-08-03T17:16:54.085Z,100601.25
2022-08-03T17:19:17.720Z,100605.69
2022-08-03T17:21:41.917Z,100598.38
2022-08-03T17:24:19.748Z,100600.06
2022-08-03T17:26:43.597Z,100605.91
2022-08-03T17:29:12.528Z,100608.38
2022-08-03T17:31:49.605Z,100608.31
2022-08-03T17:34:13.296Z,100606.19
2022-08-03T17:37:02.587Z,100602.78
2022-08-03T17:39:35.765Z,100602.13
2022-08-03T17:42:05.394Z,100603.13
2022-08-03T17:44:48.467Z,100608.53
2022-08-03T17:47:13.430Z,100603.13
2022-08-03T17:49:42.262Z,100615.84
2022-08-03T17:52:06.687Z,100617.72
2022-08-03T17:54:36.929Z,100618.38
2022-08-03T17:57:22.369Z,100623.63
2022-08-03T17:59:52.710Z,100623.63
2022-08-03T18:02:47.642Z,100623.03
2022-08-03T18:05:16.458Z,100620.25
2022-08-03T18:07:41.576Z,100628.91
2022-08-03T18:10:11.449Z,100630.44
2022-08-03T18:12:41.683Z,100634.22
2022-08-03T18:15:08.609Z,100635.25
2022-08-03T18:17:58.273Z,100635.97
2022-08-03T18:20:32.671Z,100633.75
2022-08-03T18:23:05.002Z,100634.59
2022-08-03T18:25:43.001Z,100632.56
2022-08-03T18:28:11.818Z,100629.19
2022-08-03T18:30:38.880Z,100640.34
2022-08-03T18:34:18.878Z,100641.03
2022-08-03T18:36:02.389Z,100640.03
2022-08-03T18:38:26.465Z,100640.22
2022-08-03T18:40:49.738Z,100640.38
2022-08-03T18:43:12.760Z,100640.03
2022-08-03T18:45:56.132Z,100640.03
2022-08-03T18:48:22.514Z,100648.16
2022-08-03T18:50:50.867Z,100641.03
2022-08-03T18:53:16.569Z,100645.25
2022-08-03T18:55:52.220Z,100642.22
2022-08-03T18:58:26.681Z,100648.47
2022-08-03T19:00:54.749Z,100648.09
2022-08-03T19:03:23.099Z,100645.09
2022-08-03T19:05:56.558Z,100660.47
2022-08-03T19:08:30.731Z,100662.69
2022-08-03T19:10:57.942Z,100660.28
2022-08-03T19:13:30.767Z,100668.03
2022-08-03T19:15:54.186Z,100665.69
2022-08-03T19:18:17.434Z,100666.72
2022-08-03T19:20:42.659Z,100670.94
2022-08-03T19:23:11.226Z,100663.16
2022-08-03T19:25:35.340Z,100665.03
2022-08-03T19:27:58.812Z,100669.09
2022-08-03T19:30:40.452Z,100666.72
2022-08-03T19:33:03.866Z,100663.28
2022-08-03T19:35:51.754Z,100659.25
2022-08-03T19:38:13.418Z,100660.06
2022-08-03T19:40:38.293Z,100662.44
2022-08-03T19:43:07.151Z,100673.22
2022-08-03T19:46:04.507Z,100670.72
2022-08-03T19:48:18.997Z,100662.97
2022-08-03T19:50:45.218Z,100663.28
2022-08-03T19:53:10.222Z,100669.84
2022-08-03T19:55:37.746Z,100661.63
2022-08-03T19:58:02.504Z,100670.19
2022-08-03T20:03:18.238Z,100664.00
2022-08-03T20:05:52.337Z,100665.47
2022-08-03T20:08:17.383Z,100667.34
2022-08-03T20:10:45.099Z,100664.97
2022-08-03T20:13:11.035Z,100672.72
2022-08-03T20:15:42.377Z,100669.00
2022-08-03T20:18:05.447Z,100677.75
2022-08-03T20:20:39.797Z,100672.25
2022-08-03T20:23:06.955Z,100669.03
2022-08-03T20:25:37.636Z,100676.72
2022-08-03T20:28:05.959Z,100675.06
2022-08-03T20:30:31.354Z,100669.31
2022-08-03T20:32:54.575Z,100661.88
2022-08-03T20:35:17.626Z,100671.19
2022-08-03T20:37:40.766Z,100675.25
2022-08-03T20:40:05.978Z,100672.66
2022-08-03T20:42:29.274Z,100673.03
2022-08-03T20:45:05.695Z,100664.59
2022-08-03T20:47:29.963Z,100665.63
2022-08-03T20:49:53.576Z,100660.22
2022-08-03T20:52:18.524Z,100655.00
2022-08-03T20:54:42.267Z,100649.28
2022-08-03T20:57:09.548Z,100652.47
2022-08-03T20:59:47.136Z,100657.66
2022-08-03T21:02:11.986Z,100663.91
2022-08-03T21:04:43.602Z,100671.00
2022-08-03T21:07:16.712Z,100671.19
2022-08-03T21:12:37.302Z,100664.78
2022-08-03T21:13:08.101Z,100660.78
2022-08-03T21:13:10.710Z,100663.25
2022-08-03T21:15:05.345Z,100656.19
2022-08-03T21:17:41.304Z,100655.03
2022-08-03T21:20:07.459Z,100658.22
2022-08-03T21:22:30.883Z,100667.31
2022-08-03T21:24:54.467Z,100662.63
2022-08-03T21:27:19.156Z,100677.47
2022-08-03T21:29:52.912Z,100664.28
2022-08-03T21:32:26.469Z,100673.94
2022-08-03T21:34:57.876Z,100677.13
2022-08-03T21:37:21.113Z,100677.13
2022-08-03T21:39:50.812Z,100673.22
2022-08-03T21:42:14.218Z,100670.19
2022-08-03T21:44:37.295Z,100675.41
2022-08-03T21:47:00.389Z,100676.72
2022-08-03T21:50:04.884Z,100685.03
2022-08-03T21:52:07.930Z,100670.56
2022-08-03T21:54:32.398Z,100673.41
2022-08-03T21:56:55.443Z,100671.69
2022-08-03T21:59:19.025Z,100671.69
2022-08-03T22:01:42.163Z,100675.75
2022-08-03T22:04:06.925Z,100669.78
2022-08-03T22:06:30.235Z,100670.66
2022-08-03T22:08:54.696Z,100672.00
2022-08-03T22:11:17.810Z,100676.28
2022-08-03T22:13:44.325Z,100671.06
2022-08-03T22:16:07.727Z,100673.03
2022-08-03T22:18:30.782Z,100665.06
2022-08-03T22:20:53.885Z,100664.09
2022-08-03T22:23:20.994Z,100666.66
2022-08-03T22:25:45.838Z,100670.56
2022-08-03T22:28:09.446Z,100656.88
2022-08-03T22:30:33.236Z,100663.28
2022-08-03T22:32:57.712Z,100664.97
2022-08-03T22:35:21.583Z,100667.16
2022-08-03T22:37:44.721Z,100658.03
2022-08-03T22:40:12.145Z,100664.81
2022-08-03T22:42:36.621Z,100663.81
2022-08-03T22:44:59.680Z,100664.78
2022-08-03T22:47:23.244Z,100659.06
2022-08-03T22:49:46.754Z,100660.63
2022-08-03T22:52:30.154Z,100655.22
2022-08-03T22:54:53.290Z,100662.22
2022-08-03T22:57:16.300Z,100660.31
2022-08-03T22:59:42.126Z,100661.34
2022-08-03T23:02:20.517Z,100654.78
2022-08-03T23:04:45.247Z,100660.56
2022-08-03T23:07:09.279Z,100663.91
2022-08-03T23:09:32.546Z,100654.91
2022-08-03T23:11:55.983Z,100663.16
2022-08-03T23:14:19.749Z,100663.84
2022-08-03T23:16:44.756Z,100654.47
2022-08-03T23:19:17.125Z,100657.97
2022-08-03T23:22:00.154Z,100659.81
2022-08-03T23:24:25.333Z,100653.06
2022-08-03T23:26:52.790Z,100655.25
2022-08-03T23:29:15.829Z,100652.03
2022-08-03T23:31:38.997Z,100654.09
2022-08-03T23:34:24.313Z,100656.91
2022-08-03T23:36:48.736Z,100643.63
2022-08-03T23:39:11.884Z,100644.69
2022-08-03T23:41:34.917Z,100652.44
2022-08-03T23:43:57.963Z,100648.94
2022-08-03T23:46:21.173Z,100646.72
2022-08-03T23:48:44.250Z,100653.81
2022-08-03T23:51:10.846Z,100642.00
2022-08-03T23:53:39.769Z,100641.03
2022-08-03T23:56:11.645Z,100643.44
2022-08-03T23:58:39.530Z,100640.41
